createdAt,value
2022-09-01T00:03:37.118Z,4.63
2022-09-01T00:08:36.266Z,5.18
2022-09-01T00:13:35.548Z,5.10
2022-09-01T00:18:38.132Z,4.00
2022-09-01T00:23:37.543Z,5.28
2022-09-01T00:28:37.951Z,4.70
2022-09-01T00:33:39.137Z,4.90
2022-09-01T00:38:38.262Z,4.85
2022-09-01T00:43:42.597Z,4.40
2022-09-01T00:48:44.517Z,4.45
2022-09-01T00:53:52.441Z,3.78
2022-09-01T00:58:52.765Z,4.25
2022-09-01T01:03:53.563Z,4.20
2022-09-01T01:09:05.719Z,4.63
2022-09-01T01:14:12.490Z,4.22
2022-09-01T01:19:38.849Z,4.03
2022-09-01T01:24:39.587Z,4.15
2022-09-01T01:29:44.467Z,4.37
2022-09-01T01:34:47.530Z,4.00
2022-09-01T01:39:49.273Z,4.40
2022-09-01T01:44:50.033Z,3.97
2022-09-01T01:49:49.335Z,4.40
2022-09-01T01:54:49.761Z,5.55
2022-09-01T01:59:48.943Z,4.40
2022-09-01T02:04:48.086Z,4.25
2022-09-01T02:09:49.588Z,5.05
2022-09-01T02:14:51.168Z,4.38
2022-09-01T02:24:52.710Z,3.90
2022-09-01T02:29:55.640Z,4.10
2022-09-01T02:35:01.472Z,4.65
2022-09-01T02:40:02.364Z,3.90
2022-09-01T02:50:46.026Z,4.57
2022-09-01T02:55:47.218Z,4.13
2022-09-01T03:00:46.947Z,3.65
2022-09-01T03:05:46.054Z,3.85
2022-09-01T03:10:47.587Z,3.72
2022-09-01T03:15:46.700Z,4.00
2022-09-01T03:20:53.212Z,4.00
2022-09-01T03:25:53.732Z,3.22
2022-09-01T03:30:55.364Z,3.95
2022-09-01T03:35:56.285Z,4.05
2022-09-01T03:41:02.373Z,3.77
2022-09-01T03:46:05.685Z,4.18
2022-09-01T03:51:06.430Z,4.57
2022-09-01T03:56:09.137Z,3.80
2022-09-01T04:01:16.771Z,5.80
2022-09-01T04:06:24.603Z,4.50
2022-09-01T04:11:28.785Z,4.50
2022-09-01T04:16:56.884Z,4.43
2022-09-01T04:22:16.755Z,4.55
2022-09-01T04:27:27.337Z,4.40
2022-09-01T04:32:28.240Z,4.95
2022-09-01T04:37:30.379Z,4.40
2022-09-01T04:42:37.472Z,6.40
2022-09-01T04:47:37.812Z,5.03
2022-09-01T04:52:40.314Z,4.90
2022-09-01T04:57:49.972Z,5.47
2022-09-01T05:02:57.844Z,5.07
2022-09-01T05:08:23.398Z,5.18
2022-09-01T05:13:49.425Z,5.15
2022-09-01T05:18:58.123Z,4.43
2022-09-01T05:24:05.143Z,4.68
2022-09-01T05:29:10.876Z,5.65
2022-09-01T05:34:20.444Z,5.47
2022-09-01T05:39:19.467Z,4.25
2022-09-01T05:44:22.776Z,4.65
2022-09-01T05:49:24.787Z,4.68
2022-09-01T05:54:25.794Z,4.97
2022-09-01T05:59:31.584Z,4.47
2022-09-01T06:04:35.705Z,4.55
2022-09-01T06:09:48.613Z,4.88
2022-09-01T06:14:54.549Z,4.75
2022-09-01T06:19:56.541Z,5.22
2022-09-01T06:25:02.188Z,2.80
2022-09-01T06:30:15.443Z,2.88
2022-09-01T06:35:32.589Z,3.92
2022-09-01T06:40:39.785Z,4.15
2022-09-01T06:45:44.517Z,3.67
2022-09-01T06:56:05.723Z,4.53
2022-09-01T07:01:12.102Z,3.85
2022-09-01T07:06:59.018Z,4.75
2022-09-01T07:17:23.667Z,4.30
2022-09-01T07:22:36.954Z,3.85
2022-09-01T07:27:41.509Z,4.75
2022-09-01T07:44:05.492Z,4.45
2022-09-01T07:54:29.310Z,4.53
2022-09-01T07:59:30.203Z,3.97
2022-09-01T08:04:43.283Z,5.72
2022-09-01T08:09:45.262Z,5.05
2022-09-01T08:20:20.705Z,4.47
2022-09-01T08:25:59.503Z,4.72
2022-09-01T08:31:00.285Z,5.40
2022-09-01T08:36:11.703Z,5.18
2022-09-01T08:41:28.569Z,6.90
2022-09-01T08:46:36.400Z,7.47
2022-09-01T08:51:41.405Z,9.18
2022-09-01T08:56:49.801Z,9.07
2022-09-01T09:01:58.727Z,8.98
2022-09-01T09:07:07.365Z,7.63
2022-09-01T09:12:23.184Z,9.40
2022-09-01T09:17:27.154Z,9.13
2022-09-01T09:22:29.789Z,9.20
2022-09-01T09:27:31.653Z,12.63
2022-09-01T09:33:15.320Z,10.20
2022-09-01T09:38:37.613Z,8.23
2022-09-01T09:43:42.218Z,7.28
2022-09-01T09:48:43.437Z,8.00
2022-09-01T09:53:44.941Z,9.57
2022-09-01T09:58:46.722Z,10.88
2022-09-01T10:03:49.381Z,12.02
2022-09-01T10:08:52.562Z,13.25
2022-09-01T10:13:53.275Z,17.55
2022-09-01T10:18:53.108Z,17.02
2022-09-01T10:24:17.138Z,17.67
2022-09-01T10:29:17.778Z,19.80
2022-09-01T10:34:19.884Z,14.07
2022-09-01T10:39:28.491Z,20.90
2022-09-01T10:44:35.668Z,22.38
2022-09-01T10:50:01.706Z,18.92
2022-09-01T10:55:15.005Z,20.60
2022-09-01T11:06:13.640Z,6.43
2022-09-01T11:11:25.802Z,4.90
2022-09-01T11:16:50.523Z,4.88
2022-09-01T11:22:04.245Z,4.25
2022-09-01T11:34:00.044Z,3.15
2022-09-01T11:39:09.034Z,2.90
2022-09-01T11:44:15.613Z,3.25
2022-09-01T11:49:29.859Z,2.72
2022-09-01T11:54:29.807Z,3.60
2022-09-01T11:59:34.134Z,3.75
2022-09-01T12:04:38.133Z,3.83
2022-09-01T12:09:46.409Z,8.10
2022-09-01T12:15:28.544Z,2.70
2022-09-01T12:20:34.690Z,3.08
2022-09-01T12:25:45.446Z,2.90
2022-09-01T12:30:47.263Z,3.58
2022-09-01T12:36:06.760Z,3.58
2022-09-01T12:41:25.174Z,4.03
2022-09-01T12:46:44.064Z,2.60
2022-09-01T12:51:45.426Z,2.78
2022-09-01T12:56:52.047Z,2.75
2022-09-01T13:01:51.941Z,2.60
2022-09-01T13:06:53.658Z,2.95
2022-09-01T13:12:09.677Z,3.00
2022-09-01T13:17:32.156Z,2.97
2022-09-01T13:22:54.760Z,2.78
2022-09-01T13:28:15.651Z,2.42
2022-09-01T13:33:19.627Z,2.72
2022-09-01T13:38:21.834Z,2.75
2022-09-01T13:43:22.899Z,2.92
2022-09-01T13:48:22.913Z,3.10
2022-09-01T13:53:36.009Z,2.83
2022-09-01T13:58:38.381Z,3.05
2022-09-01T14:03:37.828Z,3.80
2022-09-01T14:08:38.634Z,3.05
2022-09-01T14:13:42.848Z,3.53
2022-09-01T14:18:42.673Z,2.95
2022-09-01T14:29:02.787Z,3.17
2022-09-01T14:34:01.722Z,3.47
2022-09-01T14:39:02.298Z,3.38
2022-09-01T14:44:15.694Z,3.58
2022-09-01T14:49:22.209Z,3.20
2022-09-01T14:54:26.245Z,3.03
2022-09-01T14:59:25.688Z,3.00
2022-09-01T15:04:24.945Z,3.38
2022-09-01T15:09:34.249Z,4.25
2022-09-01T15:14:43.115Z,3.30
2022-09-01T15:19:42.317Z,5.32
2022-09-01T15:24:56.277Z,4.32
2022-09-01T15:29:59.745Z,4.15
2022-09-01T15:34:59.443Z,4.72
2022-09-01T15:39:59.844Z,5.32
2022-09-01T15:44:59.074Z,3.67
2022-09-01T15:54:59.556Z,6.18
2022-09-01T15:59:58.623Z,5.15
2022-09-01T16:04:57.969Z,4.70
2022-09-01T16:09:59.383Z,5.13
2022-09-01T16:15:09.433Z,3.60
2022-09-01T16:20:15.164Z,4.47
2022-09-01T16:25:16.797Z,3.58
2022-09-01T16:30:30.391Z,3.35
2022-09-01T16:35:58.923Z,3.42
2022-09-01T16:41:12.024Z,3.50
2022-09-01T16:46:25.355Z,4.55
2022-09-01T16:51:34.960Z,6.53
2022-09-01T16:56:55.402Z,4.40
2022-09-01T17:02:06.244Z,3.03
2022-09-01T17:07:13.335Z,3.88
2022-09-01T17:12:28.006Z,4.35
2022-09-01T17:25:19.387Z,4.10
2022-09-01T17:32:04.300Z,3.65
2022-09-01T18:46:24.158Z,5.38
2022-09-01T18:51:32.657Z,4.78
2022-09-01T18:56:42.595Z,4.03
2022-09-01T19:01:51.482Z,3.97
2022-09-01T19:07:01.657Z,4.78
2022-09-01T19:12:14.155Z,3.70
2022-09-01T19:17:31.129Z,4.68
2022-09-01T19:22:40.219Z,3.92
2022-09-01T19:27:39.547Z,3.38
2022-09-01T19:32:40.875Z,4.82
2022-09-01T19:37:40.366Z,4.32
2022-09-01T19:42:44.550Z,3.92
2022-09-01T19:48:10.011Z,4.18
2022-09-01T19:53:38.152Z,3.38
2022-09-01T19:58:47.046Z,3.75
2022-09-01T20:04:12.775Z,3.83
2022-09-01T20:09:18.140Z,3.45
2022-09-01T20:14:34.965Z,4.28
2022-09-01T20:19:42.521Z,4.05
2022-09-01T20:24:41.636Z,3.38
2022-09-01T20:29:48.388Z,4.22
2022-09-01T20:34:54.525Z,3.60
2022-09-01T20:40:01.708Z,3.83
2022-09-01T20:45:06.766Z,3.70
2022-09-01T20:50:12.752Z,3.28
2022-09-01T20:55:16.275Z,3.25
2022-09-01T21:00:23.099Z,3.55
2022-09-01T21:05:34.084Z,3.10
2022-09-01T21:10:47.937Z,3.42
2022-09-01T21:15:52.940Z,3.17
2022-09-01T21:21:05.427Z,2.30
2022-09-01T21:26:04.617Z,2.65
2022-09-01T21:31:41.436Z,2.65
2022-09-01T21:36:49.706Z,2.78
2022-09-01T21:41:52.569Z,2.40
2022-09-01T21:46:51.622Z,2.92
2022-09-01T21:51:52.173Z,2.78
2022-09-01T21:56:53.485Z,2.53
2022-09-01T22:01:52.639Z,2.97
2022-09-01T22:06:53.416Z,3.08
2022-09-01T22:11:52.910Z,3.78
2022-09-01T22:16:52.130Z,3.75
2022-09-01T22:21:53.108Z,3.80
2022-09-01T22:26:52.150Z,3.43
2022-09-01T22:31:51.029Z,3.95
2022-09-01T22:36:52.234Z,4.68
2022-09-01T22:41:51.162Z,4.32
2022-09-01T22:46:50.495Z,4.40
2022-09-01T22:51:49.462Z,3.80
2022-09-01T22:56:50.316Z,4.18
2022-09-01T23:01:51.599Z,4.23
2022-09-01T23:06:52.874Z,4.10
2022-09-01T23:11:53.501Z,5.32
2022-09-01T23:16:52.997Z,3.88
2022-09-01T23:21:52.564Z,3.95
2022-09-01T23:26:52.765Z,4.40
2022-09-01T23:31:51.804Z,3.90
2022-09-01T23:36:50.912Z,4.55
2022-09-01T23:41:49.873Z,4.57
2022-09-01T23:46:50.428Z,4.60
2022-09-01T23:51:49.581Z,4.00
2022-09-01T23:56:48.719Z,5.07
